Time;durP1;ratioP1;P1;durP2;ratioP2;P2;SDS_P1;SDS_P2;PMS_P1;PMS_P2;Temp;Humidity;BMP_temperature;BMP_pressure;BME280_temperature;BME280_humidity;BME280_pressure;Samples;Min_cycle;Max_cycle;Signal;HPM_P1;HPM_P2
2021/09/06 00:02:06;;;;;;;1.70;1.08;;;10.00;89.40;;;;;;6190501;23;20009;-91
2021/09/06 00:04:35;;;;;;;3.65;1.60;;;10.00;88.30;;;;;;6190171;23;20333;-91
2021/09/06 00:07:01;;;;;;;1.90;1.60;;;10.10;90.30;;;;;;6191254;23;20004;-91
2021/09/06 00:09:27;;;;;;;2.72;1.88;;;10.10;89.20;;;;;;6217076;23;20409;-91
2021/09/06 00:11:53;;;;;;;3.22;1.95;;;10.10;89.50;;;;;;6190591;23;20310;-91
2021/09/06 00:14:18;;;;;;;2.63;1.67;;;10.10;89.70;;;;;;6189670;23;20039;-91
2021/09/06 00:16:44;;;;;;;1.10;0.90;;;10.10;90.10;;;;;;6190170;23;20075;-91
2021/09/06 00:19:10;;;;;;;1.48;1.17;;;10.10;89.00;;;;;;6190184;23;20043;-91
2021/09/06 00:21:36;;;;;;;2.38;1.63;;;10.10;89.50;;;;;;6189886;23;20444;-91
2021/09/06 00:24:01;;;;;;;1.92;1.10;;;10.10;89.00;;;;;;6190365;23;20012;-91
2021/09/06 00:26:28;;;;;;;1.88;1.30;;;10.10;88.90;;;;;;6190067;23;20003;-91
2021/09/06 00:28:54;;;;;;;2.00;1.42;;;10.00;88.80;;;;;;6190137;23;20074;-91
2021/09/06 00:31:20;;;;;;;2.83;1.60;;;10.00;89.20;;;;;;6190120;23;20417;-91
2021/09/06 00:33:46;;;;;;;2.40;1.58;;;10.00;89.80;;;;;;6191551;23;20012;-91
2021/09/06 00:36:12;;;;;;;1.38;1.27;;;10.00;89.70;;;;;;6192227;23;20032;-90
2021/09/06 00:38:37;;;;;;;2.80;1.83;;;10.00;90.00;;;;;;6218998;23;20355;-91
2021/09/06 00:41:03;;;;;;;1.48;1.30;;;9.90;90.20;;;;;;6191927;23;20015;-90
2021/09/06 00:43:29;;;;;;;1.95;1.67;;;9.90;90.10;;;;;;6192065;23;20040;-90
2021/09/06 00:45:56;;;;;;;3.15;2.13;;;9.90;90.30;;;;;;6192233;23;20055;-90
2021/09/06 00:48:25;;;;;;;1.67;1.35;;;9.90;90.60;;;;;;6191646;23;20001;-91
2021/09/06 00:50:51;;;;;;;3.38;1.88;;;9.90;90.80;;;;;;6218451;23;20020;-91
2021/09/06 00:53:17;;;;;;;2.55;1.80;;;9.90;91.10;;;;;;6191976;23;20009;-90
2021/09/06 00:55:43;;;;;;;2.50;1.80;;;9.90;91.30;;;;;;6191733;23;20008;-91
2021/09/06 00:58:09;;;;;;;2.17;1.92;;;9.90;91.30;;;;;;6191814;23;20289;-91
2021/09/06 01:00:35;;;;;;;1.88;1.73;;;9.90;91.50;;;;;;6191786;23;20012;-90
2021/09/06 01:03:01;;;;;;;2.38;1.85;;;9.90;91.40;;;;;;6191690;23;20056;-91
2021/09/06 01:05:27;;;;;;;2.63;2.13;;;10.00;91.40;;;;;;6195611;23;19997;-91
2021/09/06 01:07:53;;;;;;;3.65;2.25;;;10.00;91.60;;;;;;6199902;23;20036;-91
2021/09/06 01:10:19;;;;;;;2.70;1.70;;;10.00;91.60;;;;;;6200390;23;20001;-91
2021/09/06 01:12:45;;;;;;;2.22;1.63;;;10.00;91.80;;;;;;6195223;23;20008;-91
2021/09/06 01:15:11;;;;;;;1.92;1.55;;;10.00;91.80;;;;;;6191734;23;20085;-91
2021/09/06 01:17:37;;;;;;;5.25;2.28;;;10.00;91.80;;;;;;6218276;23;19993;-91
2021/09/06 01:20:05;;;;;;;4.32;2.03;;;10.00;91.70;;;;;;6191641;23;20087;-91
2021/09/06 01:22:31;;;;;;;2.20;1.77;;;10.00;91.70;;;;;;6191461;23;20078;-91
2021/09/06 01:24:57;;;;;;;1.92;1.50;;;9.90;91.60;;;;;;6191575;23;20012;-91
2021/09/06 01:27:23;;;;;;;2.50;1.98;;;9.90;91.30;;;;;;6217856;23;19992;-91
2021/09/06 01:29:49;;;;;;;2.25;1.60;;;9.90;91.60;;;;;;6191510;23;20001;-91
2021/09/06 01:32:15;;;;;;;2.95;2.15;;;9.90;91.70;;;;;;6191614;23;20008;-91
2021/09/06 01:34:40;;;;;;;4.40;2.17;;;9.90;91.80;;;;;;6191466;23;20416;-91
2021/09/06 01:37:06;;;;;;;2.75;1.83;;;9.90;92.20;;;;;;6191707;23;20009;-91
2021/09/06 01:39:32;;;;;;;2.03;1.50;;;9.90;92.20;;;;;;6191259;23;20078;-91
2021/09/06 01:41:59;;;;;;;3.47;2.08;;;9.80;92.40;;;;;;6191276;23;20012;-91
2021/09/06 01:44:25;;;;;;;2.90;2.17;;;9.80;92.40;;;;;;6190941;23;20001;-91
2021/09/06 01:46:50;;;;;;;2.55;2.08;;;9.80;93.00;;;;;;6191433;23;20005;-91
2021/09/06 01:49:16;;;;;;;1.70;1.60;;;9.70;92.70;;;;;;6191286;23;20413;-89
2021/09/06 01:51:42;;;;;;;1.85;1.70;;;9.70;92.40;;;;;;6190749;23;20063;-90
2021/09/06 01:54:09;;;;;;;2.97;1.38;;;9.70;92.60;;;;;;6190759;23;20000;-89
2021/09/06 01:56:35;;;;;;;1.92;1.35;;;9.70;92.40;;;;;;6191054;23;20424;-91
2021/09/06 01:59:01;;;;;;;1.42;1.33;;;9.70;92.40;;;;;;6191161;23;20074;-92
2021/09/06 02:01:27;;;;;;;2.40;1.23;;;9.70;92.40;;;;;;6191155;23;20015;-92
2021/09/06 02:03:53;;;;;;;3.40;2.00;;;9.60;92.30;;;;;;6191059;23;20083;-91
2021/09/06 02:06:19;;;;;;;2.35;1.77;;;9.60;92.90;;;;;;6191261;23;20051;-91
2021/09/06 02:08:45;;;;;;;3.13;1.55;;;9.60;92.80;;;;;;6217818;23;20031;-91
2021/09/06 02:11:10;;;;;;;4.05;2.58;;;9.50;93.10;;;;;;6191070;23;20016;-91
2021/09/06 02:13:36;;;;;;;2.22;1.70;;;9.50;93.70;;;;;;6190938;23;20008;-91
2021/09/06 02:16:02;;;;;;;2.80;2.05;;;9.40;93.50;;;;;;6191320;23;20054;-91
2021/09/06 02:18:28;;;;;;;1.98;1.70;;;9.40;93.70;;;;;;6191298;23;20005;-91
2021/09/06 02:20:54;;;;;;;2.38;1.77;;;9.40;93.50;;;;;;6191098;23;20016;-91
2021/09/06 02:23:20;;;;;;;1.77;1.25;;;9.30;93.80;;;;;;6218283;23;20013;-91
2021/09/06 02:25:45;;;;;;;5.28;1.95;;;9.30;93.80;;;;;;6190882;23;20012;-91
2021/09/06 02:28:11;;;;;;;2.03;1.83;;;9.30;93.50;;;;;;6190603;23;20492;-91
2021/09/06 02:30:37;;;;;;;2.58;2.13;;;9.30;93.70;;;;;;6191092;23;20068;-91
2021/09/06 02:33:03;;;;;;;3.15;2.38;;;9.20;94.20;;;;;;6190848;23;20422;-91
2021/09/06 02:35:29;;;;;;;2.70;1.83;;;9.20;94.10;;;;;;6190785;23;20294;-91
2021/09/06 02:37:54;;;;;;;3.63;2.20;;;9.20;94.20;;;;;;6190762;23;20011;-91
2021/09/06 02:40:20;;;;;;;3.03;1.92;;;9.20;94.60;;;;;;6190669;23;20019;-91
2021/09/06 02:42:46;;;;;;;3.85;2.40;;;9.10;94.60;;;;;;6217311;23;20515;-90
2021/09/06 02:45:12;;;;;;;2.88;2.17;;;9.10;94.30;;;;;;6193378;23;20008;-90
2021/09/06 02:47:38;;;;;;;3.25;2.13;;;9.10;94.20;;;;;;6190951;23;20064;-91
2021/09/06 02:50:04;;;;;;;2.30;1.60;;;9.00;94.00;;;;;;6190484;23;20092;-91
2021/09/06 02:52:32;;;;;;;2.83;1.48;;;8.90;93.90;;;;;;6190801;23;20409;-91
2021/09/06 02:54:57;;;;;;;3.35;2.20;;;8.90;93.90;;;;;;6190303;23;20010;-91
2021/09/06 02:57:24;;;;;;;1.42;1.33;;;8.80;94.10;;;;;;6190582;23;20067;-89
2021/09/06 02:59:50;;;;;;;3.45;1.85;;;8.80;94.10;;;;;;6190470;23;20020;-89
2021/09/06 03:02:16;;;;;;;2.35;1.73;;;8.70;94.20;;;;;;6191227;23;20008;-90
2021/09/06 03:04:42;;;;;;;2.22;1.88;;;8.70;94.40;;;;;;6190501;23;20424;-90
2021/09/06 03:07:07;;;;;;;3.47;2.13;;;8.70;94.70;;;;;;6190458;23;20004;-90
2021/09/06 03:09:33;;;;;;;2.25;1.65;;;8.60;94.80;;;;;;6190871;23;20487;-90
2021/09/06 03:11:58;;;;;;;2.67;1.63;;;8.60;95.00;;;;;;6216967;23;19997;-89
2021/09/06 03:14:24;;;;;;;5.40;2.15;;;8.60;95.00;;;;;;6217065;23;20055;-90
2021/09/06 03:16:51;;;;;;;4.50;2.25;;;8.60;95.10;;;;;;6191489;23;19997;-89
2021/09/06 03:19:17;;;;;;;4.13;2.17;;;8.60;95.10;;;;;;6216770;23;20008;-91
2021/09/06 03:21:43;;;;;;;4.10;2.35;;;8.60;95.10;;;;;;6189804;23;20095;-90
2021/09/06 03:24:09;;;;;;;2.50;1.92;;;8.60;96.40;;;;;;6191058;23;20008;-90
2021/09/06 03:26:34;;;;;;;2.95;1.95;;;8.50;96.10;;;;;;6191935;23;20362;-89
2021/09/06 03:29:00;;;;;;;3.00;2.33;;;8.50;95.90;;;;;;6191579;23;20008;-90
2021/09/06 03:31:26;;;;;;;4.30;2.00;;;8.60;96.00;;;;;;6190387;23;20042;-90
2021/09/06 03:33:51;;;;;;;3.53;2.17;;;8.60;95.90;;;;;;6191608;23;20024;-90
2021/09/06 03:36:17;;;;;;;3.20;2.83;;;8.60;96.10;;;;;;6191598;23;20051;-90
2021/09/06 03:38:43;;;;;;;3.60;2.13;;;8.70;96.10;;;;;;6191561;23;20413;-90
2021/09/06 03:41:08;;;;;;;3.38;1.85;;;8.70;96.10;;;;;;6190364;23;20011;-90
2021/09/06 03:43:34;;;;;;;3.05;2.25;;;8.70;95.90;;;;;;6190098;23;20417;-90
2021/09/06 03:46:00;;;;;;;2.92;1.98;;;8.70;95.90;;;;;;6190216;23;20005;-89
2021/09/06 03:48:25;;;;;;;2.70;2.10;;;8.70;95.90;;;;;;6189913;23;20009;-90
2021/09/06 03:50:51;;;;;;;3.20;1.88;;;8.80;96.10;;;;;;6216789;23;20021;-90
2021/09/06 03:53:17;;;;;;;2.30;2.00;;;8.80;96.20;;;;;;6190476;23;20007;-89
2021/09/06 03:55:43;;;;;;;3.30;2.85;;;8.90;96.20;;;;;;6216965;23;20289;-90
2021/09/06 03:58:08;;;;;;;4.22;2.60;;;9.00;96.60;;;;;;6216699;23;20000;-90
2021/09/06 04:00:34;;;;;;;4.63;2.58;;;9.00;97.10;;;;;;6190444;23;20062;-90
2021/09/06 04:02:59;;;;;;;5.20;2.40;;;9.10;96.70;;;;;;6190450;23;20005;-90
2021/09/06 04:05:25;;;;;;;5.45;2.38;;;9.10;96.50;;;;;;6190137;23;20009;-89
2021/09/06 04:07:51;;;;;;;3.78;2.67;;;9.20;96.80;;;;;;6190439;23;19997;-89
2021/09/06 04:10:16;;;;;;;3.45;2.22;;;9.30;96.80;;;;;;6191805;23;20009;-91
2021/09/06 04:12:42;;;;;;;4.78;2.40;;;9.40;96.50;;;;;;6191972;23;20004;-90
2021/09/06 04:15:09;;;;;;;2.42;2.17;;;9.50;96.20;;;;;;6191643;23;20027;-89
2021/09/06 04:17:36;;;;;;;4.32;2.80;;;9.60;95.90;;;;;;6192012;23;20067;-90
2021/09/06 04:20:02;;;;;;;4.20;2.20;;;9.70;95.80;;;;;;6192187;23;20083;-90
2021/09/06 04:22:28;;;;;;;5.30;1.70;;;9.80;95.80;;;;;;6191636;23;20340;-90
2021/09/06 04:24:54;;;;;;;2.80;2.13;;;9.90;95.80;;;;;;6192980;23;20024;-89
2021/09/06 04:27:19;;;;;;;3.30;2.17;;;10.00;95.70;;;;;;6218026;23;20491;-90
2021/09/06 04:29:45;;;;;;;4.65;2.42;;;10.00;95.60;;;;;;6192899;23;19996;-91
2021/09/06 04:32:11;;;;;;;3.60;2.25;;;10.10;95.80;;;;;;6192166;23;20005;-91
2021/09/06 04:34:36;;;;;;;3.72;2.30;;;10.20;95.50;;;;;;6192370;23;20020;-92
2021/09/06 04:37:03;;;;;;;3.38;2.40;;;10.30;95.50;;;;;;6192660;23;20083;-90
2021/09/06 04:39:29;;;;;;;3.10;2.22;;;10.40;95.40;;;;;;6191748;23;20356;-90
2021/09/06 04:41:55;;;;;;;4.55;2.53;;;10.50;95.20;;;;;;6191487;23;20008;-90
2021/09/06 04:44:20;;;;;;;3.67;2.55;;;10.60;95.00;;;;;;6192207;23;20005;-90
2021/09/06 04:46:46;;;;;;;4.00;2.42;;;10.60;94.80;;;;;;6191464;23;20443;-90
2021/09/06 04:49:12;;;;;;;4.03;2.65;;;10.70;94.60;;;;;;6192123;23;20007;-91
2021/09/06 04:51:38;;;;;;;3.58;2.33;;;10.80;94.50;;;;;;6218654;23;20444;-90
2021/09/06 04:54:03;;;;;;;2.90;2.20;;;10.90;94.60;;;;;;6192614;23;20011;-90
2021/09/06 04:56:29;;;;;;;2.65;2.17;;;10.90;94.40;;;;;;6199731;23;20428;-90
2021/09/06 04:58:55;;;;;;;4.10;2.40;;;11.00;94.30;;;;;;6191694;23;20096;-90
2021/09/06 05:01:21;;;;;;;2.53;2.28;;;11.20;94.10;;;;;;6191426;23;20436;-90
2021/09/06 05:03:46;;;;;;;2.72;2.50;;;11.30;93.90;;;;;;6218267;23;19992;-90
2021/09/06 05:06:12;;;;;;;3.17;2.35;;;11.30;93.80;;;;;;6191560;23;20004;-91
2021/09/06 05:08:38;;;;;;;5.15;2.95;;;11.40;93.80;;;;;;6191298;23;20001;-90
2021/09/06 05:11:04;;;;;;;4.95;3.20;;;11.50;93.70;;;;;;6191890;23;20009;-90
2021/09/06 05:13:30;;;;;;;4.68;2.47;;;11.70;93.50;;;;;;6191481;23;20420;-89
2021/09/06 05:15:57;;;;;;;4.13;2.58;;;11.70;93.00;;;;;;6191277;23;20008;-89
2021/09/06 05:18:22;;;;;;;15.57;2.80;;;11.70;92.60;;;;;;6190712;23;20005;-89
2021/09/06 05:20:49;;;;;;;2.58;2.20;;;11.80;92.50;;;;;;6191983;23;20043;-90
2021/09/06 05:23:16;;;;;;;2.67;1.85;;;11.80;92.30;;;;;;6191207;23;20020;-90
2021/09/06 05:25:41;;;;;;;2.88;2.15;;;11.80;92.20;;;;;;6191025;23;20013;-89
2021/09/06 05:28:07;;;;;;;3.17;2.28;;;11.90;92.20;;;;;;6191316;23;20005;-90
2021/09/06 05:30:33;;;;;;;2.95;2.20;;;12.00;92.10;;;;;;6191546;23;20013;-90
2021/09/06 05:32:59;;;;;;;3.03;2.38;;;12.10;91.70;;;;;;6192184;23;20012;-91
2021/09/06 05:35:25;;;;;;;2.58;1.83;;;12.20;91.50;;;;;;6191926;23;20005;-90
2021/09/06 05:37:51;;;;;;;3.47;2.30;;;12.30;91.20;;;;;;6218005;23;20420;-90
2021/09/06 05:40:16;;;;;;;3.10;1.92;;;12.40;91.00;;;;;;6218503;23;20005;-90
2021/09/06 05:42:42;;;;;;;3.88;2.22;;;12.40;90.80;;;;;;6217816;23;20001;-91
2021/09/06 05:45:09;;;;;;;4.22;2.70;;;12.60;90.80;;;;;;6191301;23;20000;-90
2021/09/06 05:47:35;;;;;;;3.50;2.30;;;12.70;90.40;;;;;;6191407;23;20003;-90
2021/09/06 05:50:00;;;;;;;4.50;2.97;;;12.90;89.60;;;;;;6217380;23;20001;-90
2021/09/06 05:52:26;;;;;;;3.65;2.20;;;12.90;89.30;;;;;;6191147;23;20339;-90
2021/09/06 05:54:52;;;;;;;3.92;2.70;;;12.90;89.10;;;;;;6217783;23;20451;-89
2021/09/06 05:57:17;;;;;;;3.80;2.28;;;13.00;88.40;;;;;;6218353;23;20004;-90
2021/09/06 05:59:43;;;;;;;2.83;2.00;;;13.00;87.80;;;;;;6191009;23;20005;-90
2021/09/06 06:02:09;;;;;;;3.70;2.22;;;13.00;87.70;;;;;;6191127;23;20076;-90
2021/09/06 06:04:34;;;;;;;3.85;1.85;;;13.10;86.00;;;;;;6190386;23;20012;-91
2021/09/06 06:07:02;;;;;;;2.78;2.00;;;13.20;86.20;;;;;;6190027;23;20423;-91
2021/09/06 06:09:27;;;;;;;2.70;1.77;;;13.30;84.60;;;;;;6189718;23;20336;-91
2021/09/06 06:11:53;;;;;;;2.35;1.92;;;13.30;84.40;;;;;;6189407;23;20016;-90
2021/09/06 06:14:20;;;;;;;3.35;2.05;;;13.40;83.10;;;;;;6189894;23;20092;-90
2021/09/06 06:16:46;;;;;;;2.58;1.88;;;13.40;83.40;;;;;;6189944;23;20008;-90
2021/09/06 06:19:11;;;;;;;2.65;1.70;;;13.50;82.10;;;;;;6216252;23;20377;-89
2021/09/06 06:21:38;;;;;;;2.55;2.13;;;13.50;82.60;;;;;;6215466;23;20017;-90
2021/09/06 06:24:08;;;;;;;2.30;1.60;;;13.50;82.20;;;;;;6165554;23;20051;-90
2021/09/06 06:26:34;;;;;;;2.53;1.65;;;13.40;82.10;;;;;;6167235;23;20112;-90
2021/09/06 06:29:00;;;;;;;2.75;1.67;;;13.40;81.50;;;;;;6190036;23;20152;-92
2021/09/06 06:31:26;;;;;;;2.60;1.77;;;13.40;82.20;;;;;;6190362;23;20013;-92
2021/09/06 06:33:54;;;;;;;2.75;1.60;;;13.40;81.50;;;;;;6191010;23;20067;-91
2021/09/06 06:36:20;;;;;;;1.88;1.55;;;13.40;81.40;;;;;;6165301;23;20088;-92
2021/09/06 06:38:49;;;;;;;2.92;1.90;;;13.40;81.60;;;;;;6191593;23;20008;-92
2021/09/06 06:41:15;;;;;;;3.05;1.98;;;13.50;80.70;;;;;;6191424;23;20004;-91
2021/09/06 06:43:42;;;;;;;2.33;1.92;;;13.50;80.60;;;;;;6190085;23;20008;-93
2021/09/06 06:46:10;;;;;;;2.30;1.77;;;13.50;80.30;;;;;;6217369;23;20000;-92
2021/09/06 06:48:40;;;;;;;2.95;2.10;;;13.60;80.60;;;;;;6217623;23;20012;-92
2021/09/06 06:51:08;;;;;;;2.20;1.63;;;13.60;80.00;;;;;;6190903;23;20107;-91
2021/09/06 06:53:37;;;;;;;2.25;2.05;;;13.70;79.80;;;;;;6191737;23;20409;-92
2021/09/06 06:56:04;;;;;;;3.25;2.05;;;13.80;78.90;;;;;;6169921;23;20122;-91
2021/09/06 06:58:30;;;;;;;3.42;2.03;;;13.80;79.20;;;;;;6193056;23;20001;-93
2021/09/06 07:00:58;;;;;;;1.98;1.65;;;13.90;78.90;;;;;;6192767;23;20008;-91
2021/09/06 07:03:24;;;;;;;2.58;1.85;;;14.00;77.50;;;;;;6192408;23;19996;-92
2021/09/06 07:05:50;;;;;;;2.40;1.67;;;14.00;76.20;;;;;;6194788;23;20004;-92
2021/09/06 07:08:15;;;;;;;1.20;1.15;;;14.00;75.90;;;;;;6198664;23;20365;-92
2021/09/06 07:10:41;;;;;;;2.85;1.90;;;14.10;77.00;;;;;;6198603;23;20011;-92
2021/09/06 07:13:07;;;;;;;2.42;1.67;;;14.20;76.40;;;;;;6194225;23;20091;-90
2021/09/06 07:15:32;;;;;;;2.25;1.17;;;14.20;74.50;;;;;;6218374;23;20004;-90
2021/09/06 07:18:00;;;;;;;1.73;1.40;;;14.40;74.60;;;;;;6218048;23;20026;-90
2021/09/06 07:20:26;;;;;;;1.42;1.33;;;14.50;73.40;;;;;;6191464;23;20005;-91
2021/09/06 07:22:52;;;;;;;2.13;1.30;;;14.60;72.00;;;;;;6187404;23;20020;-91
2021/09/06 07:25:21;;;;;;;1.83;1.23;;;14.70;69.00;;;;;;6217518;23;20009;-92
2021/09/06 07:27:59;;;;;;;1.92;1.10;;;14.70;67.80;;;;;;6167022;23;20019;-92
2021/09/06 07:30:24;;;;;;;1.27;1.17;;;14.80;67.40;;;;;;6190825;23;20005;-92
2021/09/06 07:32:51;;;;;;;1.92;1.60;;;14.90;68.50;;;;;;6189917;23;20321;-91
2021/09/06 07:35:18;;;;;;;2.05;1.33;;;15.10;68.50;;;;;;6190479;23;20555;-94
2021/09/06 07:37:49;;;;;;;1.60;0.95;;;15.30;68.10;;;;;;6167705;23;20005;-92
2021/09/06 07:40:16;;;;;;;1.25;1.15;;;15.50;66.90;;;;;;6142033;23;20440;-94
2021/09/06 07:42:42;;;;;;;2.47;1.75;;;15.70;65.40;;;;;;6169598;23;20005;-92
2021/09/06 07:45:10;;;;;;;2.15;1.58;;;15.70;63.50;;;;;;6192235;23;20324;-92
2021/09/06 07:47:38;;;;;;;2.40;1.73;;;15.70;63.20;;;;;;6219347;23;20324;-89
2021/09/06 07:50:07;;;;;;;2.25;1.90;;;15.60;61.10;;;;;;6190755;23;20005;-90
2021/09/06 07:52:39;;;;;;;2.38;1.73;;;15.60;62.10;;;;;;6166246;23;20099;-92
2021/09/06 07:55:07;;;;;;;2.38;1.90;;;15.50;62.20;;;;;;6167640;23;20049;-91
2021/09/06 07:57:34;;;;;;;2.10;1.80;;;15.60;63.50;;;;;;6217556;23;20119;-92
2021/09/06 08:00:01;;;;;;;1.50;1.40;;;15.70;63.30;;;;;;6192403;23;20011;-90
2021/09/06 08:02:27;;;;;;;2.22;1.70;;;15.90;63.30;;;;;;6190261;23;20004;-91
2021/09/06 08:04:52;;;;;;;3.90;1.90;;;16.10;62.60;;;;;;6191488;23;20016;-91
2021/09/06 08:07:19;;;;;;;2.13;1.85;;;16.20;60.60;;;;;;6191767;23;20001;-90
2021/09/06 08:09:48;;;;;;;2.08;1.67;;;16.20;60.80;;;;;;6192391;23;20007;-91
2021/09/06 08:12:13;;;;;;;2.08;1.63;;;16.20;60.50;;;;;;6217963;23;20081;-89
2021/09/06 08:14:39;;;;;;;2.10;1.90;;;16.20;59.20;;;;;;6189469;23;20012;-88
2021/09/06 08:17:06;;;;;;;3.10;1.98;;;16.10;59.60;;;;;;6190049;23;20023;-91
2021/09/06 08:19:31;;;;;;;1.50;1.20;;;16.00;59.00;;;;;;6190326;23;20328;-90
2021/09/06 08:21:59;;;;;;;3.20;1.45;;;15.90;59.40;;;;;;6191064;23;20016;-89
2021/09/06 08:24:27;;;;;;;2.28;1.65;;;15.90;59.00;;;;;;6190637;23;20028;-89
2021/09/06 08:26:54;;;;;;;4.05;1.50;;;15.90;59.40;;;;;;6190287;23;20032;-90
2021/09/06 08:29:23;;;;;;;2.30;1.48;;;15.90;59.10;;;;;;6189954;23;20009;-89
2021/09/06 08:31:49;;;;;;;2.83;1.60;;;16.00;58.40;;;;;;6190589;23;20008;-88
2021/09/06 08:34:14;;;;;;;1.38;1.05;;;15.90;55.80;;;;;;6191602;23;20095;-91
2021/09/06 08:36:43;;;;;;;1.83;1.42;;;15.80;56.80;;;;;;6190707;23;20314;-89
2021/09/06 08:39:09;;;;;;;2.17;1.75;;;15.70;56.30;;;;;;6217877;23;20024;-90
2021/09/06 08:41:35;;;;;;;2.33;1.70;;;15.60;57.00;;;;;;6192377;23;20425;-91
2021/09/06 08:44:02;;;;;;;2.92;1.40;;;15.50;57.60;;;;;;6191822;23;20413;-90
2021/09/06 08:46:28;;;;;;;2.45;1.67;;;15.60;57.60;;;;;;6191739;23;20092;-89
2021/09/06 08:48:55;;;;;;;2.75;1.98;;;15.60;57.40;;;;;;6191032;23;20096;-89
2021/09/06 08:51:20;;;;;;;1.52;1.42;;;15.70;57.80;;;;;;6190385;23;20016;-89
2021/09/06 08:53:49;;;;;;;1.55;1.33;;;15.90;57.80;;;;;;6190850;23;20036;-90
2021/09/06 08:56:17;;;;;;;1.30;1.00;;;16.10;57.80;;;;;;6192484;23;20005;-89
2021/09/06 08:58:43;;;;;;;2.10;1.38;;;16.30;57.60;;;;;;6191404;23;20011;-89
2021/09/06 09:01:08;;;;;;;2.35;2.10;;;16.50;57.50;;;;;;6190509;23;20040;-89
2021/09/06 09:03:34;;;;;;;1.90;1.63;;;16.70;56.30;;;;;;6193253;23;20005;-89
2021/09/06 09:06:06;;;;;;;1.75;1.50;;;16.60;56.00;;;;;;6190939;23;20011;-87
2021/09/06 09:08:33;;;;;;;2.28;1.60;;;16.70;55.00;;;;;;6191498;23;20004;-88
2021/09/06 09:11:04;;;;;;;2.25;1.70;;;16.70;55.50;;;;;;6191179;23;20008;-89
2021/09/06 09:13:33;;;;;;;2.22;1.38;;;16.80;55.20;;;;;;6190139;23;20076;-89
2021/09/06 09:16:17;;;;;;;1.65;1.52;;;17.00;55.50;;;;;;6187235;23;20035;-92
2021/09/06 09:19:02;;;;;;;3.60;1.67;;;17.10;54.10;;;;;;6191158;23;20004;-94
2021/09/06 09:29:41;;;;;;;2.17;1.80;;;17.50;50.10;;;;;;6097016;23;20083;-92
2021/09/06 09:36:41;;;;;;;2.42;1.73;;;17.50;50.50;;;;;;6097300;23;20053;-92
2021/09/06 09:39:33;;;;;;;2.78;1.55;;;17.60;52.50;;;;;;6074024;23;20073;-92
2021/09/06 09:53:28;;;;;;;2.15;1.55;;;17.40;47.70;;;;;;6137812;23;20018;-92
2021/09/06 09:56:51;;;;;;;;;;;;;;;;;;;;;
2021/09/06 10:03:35;;;;;;;1.98;1.45;;;17.30;49.30;;;;;;6041249;23;20023;-93
2021/09/06 10:41:17;;;;;;;1.88;1.50;;;17.60;47.40;;;;;;6122921;23;20061;-93
2021/09/06 11:37:29;;;;;;;2.03;1.48;;;18.00;46.20;;;;;;6196951;22;20024;-93
2021/09/06 11:39:55;;;;;;;1.27;1.17;;;18.00;46.40;;;;;;6192853;23;20182;-92
2021/09/06 12:26:58;;;;;;;1.85;1.42;;;17.60;45.40;;;;;;6099517;23;20150;-92
2021/09/06 12:32:47;;;;;;;2.45;1.50;;;17.20;46.00;;;;;;6099864;23;20098;-93
2021/09/06 13:27:28;;;;;;;1.63;1.38;;;17.40;44.90;;;;;;6183115;23;21196;-94
2021/09/06 13:29:57;;;;;;;1.75;1.50;;;17.40;45.60;;;;;;6184351;23;19997;-94
2021/09/06 13:35:50;;;;;;;2.40;1.70;;;17.70;45.40;;;;;;6146819;23;20013;-94
2021/09/06 13:39:06;;;;;;;2.28;1.85;;;17.80;44.40;;;;;;6116667;23;20010;-94
2021/09/06 13:45:28;;;;;;;1.92;1.52;;;18.00;43.70;;;;;;6122437;23;20347;-93
2021/09/06 13:47:56;;;;;;;5.10;1.63;;;18.20;44.60;;;;;;6101887;23;20017;-93
2021/09/06 13:50:22;;;;;;;1.83;1.73;;;18.20;44.50;;;;;;6173006;23;20342;-93
2021/09/06 13:53:11;;;;;;;2.72;1.60;;;18.20;44.60;;;;;;6188489;23;20005;-93
2021/09/06 13:55:41;;;;;;;2.28;1.60;;;18.20;44.30;;;;;;6184950;23;20005;-94
2021/09/06 13:58:07;;;;;;;1.75;1.52;;;18.20;43.90;;;;;;6190270;23;19997;-92
2021/09/06 14:00:33;;;;;;;2.85;1.63;;;18.20;43.60;;;;;;6188353;23;20036;-92
2021/09/06 14:03:06;;;;;;;3.67;1.90;;;18.30;43.90;;;;;;6186446;23;20009;-90
2021/09/06 14:05:32;;;;;;;3.10;2.25;;;18.30;43.20;;;;;;6189759;23;20009;-91
2021/09/06 14:08:01;;;;;;;3.13;1.95;;;18.20;43.00;;;;;;6164100;23;20006;-92
2021/09/06 14:10:28;;;;;;;3.65;1.85;;;18.00;42.90;;;;;;6188493;23;20015;-91
2021/09/06 14:12:55;;;;;;;2.10;1.88;;;17.80;42.80;;;;;;6165269;23;20017;-93
2021/09/06 14:15:22;;;;;;;3.00;2.00;;;17.60;42.70;;;;;;6192188;23;20016;-93
2021/09/06 14:17:50;;;;;;;2.97;1.77;;;17.40;43.20;;;;;;6191632;23;20001;-94
2021/09/06 14:20:15;;;;;;;3.13;2.08;;;17.30;43.80;;;;;;6185746;23;20012;-91
2021/09/06 14:22:42;;;;;;;3.58;2.30;;;17.40;44.10;;;;;;6194293;23;20005;-94
2021/09/06 14:27:40;;;;;;;2.05;1.70;;;17.80;44.30;;;;;;6210049;23;20088;-92
2021/09/06 14:30:16;;;;;;;3.35;1.98;;;18.50;43.80;;;;;;6178314;23;20043;-92
2021/09/06 14:35:17;;;;;;;2.10;1.60;;;19.10;41.90;;;;;;6204797;23;20009;-96
2021/09/06 14:40:26;;;;;;;1.77;1.58;;;19.20;41.50;;;;;;6181485;22;20048;-94
2021/09/06 14:46:12;;;;;;;2.45;1.70;;;19.50;40.40;;;;;;6137869;23;20020;31
2021/09/06 14:51:26;;;;;;;4.47;1.52;;;20.00;39.60;;;;;;6192273;22;20064;-95
2021/09/06 15:31:15;;;;;;;1.90;1.50;;;22.00;38.10;;;;;;6177326;22;20232;-93
2021/09/06 15:33:42;;;;;;;1.95;1.50;;;22.30;37.80;;;;;;6228578;23;20012;-94
2021/09/06 15:36:08;;;;;;;1.50;1.27;;;22.20;37.50;;;;;;6216394;23;20005;-95
2021/09/06 15:38:34;;;;;;;2.03;1.42;;;22.40;37.90;;;;;;6217750;23;19997;-93
2021/09/06 15:41:03;;;;;;;1.33;1.23;;;22.60;37.90;;;;;;6215541;23;20310;-94
2021/09/06 15:43:50;;;;;;;1.95;1.77;;;22.70;37.40;;;;;;6216138;23;20012;-94
2021/09/06 15:46:19;;;;;;;2.42;1.83;;;22.70;36.10;;;;;;6215738;23;19992;-95
2021/09/06 15:48:45;;;;;;;1.90;1.65;;;22.70;37.20;;;;;;6189665;23;20001;-94
2021/09/06 15:51:11;;;;;;;3.72;1.70;;;22.50;37.10;;;;;;6190104;23;20005;-95
2021/09/06 15:53:38;;;;;;;3.63;1.90;;;22.10;36.80;;;;;;6216998;23;20004;-94
2021/09/06 15:56:04;;;;;;;1.77;1.45;;;21.40;37.60;;;;;;6216842;23;20001;-93
2021/09/06 15:58:30;;;;;;;2.47;2.00;;;20.80;37.80;;;;;;6167347;23;20032;-95
2021/09/06 16:00:57;;;;;;;3.38;2.17;;;20.10;38.60;;;;;;6191025;23;20009;-93
2021/09/06 16:03:23;;;;;;;2.85;1.80;;;19.50;39.30;;;;;;6215881;23;19997;-94
2021/09/06 16:05:48;;;;;;;2.65;1.85;;;19.00;40.00;;;;;;6218980;23;20066;-94
2021/09/06 16:08:14;;;;;;;2.15;1.73;;;18.50;40.60;;;;;;6195799;23;20065;-95
2021/09/06 16:10:40;;;;;;;2.03;1.83;;;18.20;41.10;;;;;;6218037;23;20288;-94
2021/09/06 16:13:06;;;;;;;4.05;2.70;;;17.90;41.50;;;;;;6216974;23;20018;-94
2021/09/06 16:15:31;;;;;;;3.95;2.03;;;17.60;42.00;;;;;;6219140;23;19993;-94
2021/09/06 16:17:57;;;;;;;2.50;2.17;;;17.40;42.40;;;;;;6219753;23;19996;-93
2021/09/06 16:20:23;;;;;;;3.53;2.38;;;17.10;43.00;;;;;;6193077;23;20001;-93
2021/09/06 16:22:48;;;;;;;4.40;2.72;;;16.80;43.40;;;;;;6192153;23;20424;-94
2021/09/06 16:25:14;;;;;;;4.10;2.50;;;16.60;44.40;;;;;;6221353;23;20103;-94
2021/09/06 16:27:41;;;;;;;3.35;2.72;;;16.30;44.40;;;;;;6192313;23;20005;-94
2021/09/06 16:30:08;;;;;;;3.17;2.42;;;16.10;44.80;;;;;;6203198;23;20376;-94
2021/09/06 16:32:34;;;;;;;3.67;2.45;;;15.90;45.30;;;;;;6193965;23;20056;-95
2021/09/06 16:35:00;;;;;;;4.05;2.50;;;15.70;45.90;;;;;;6194522;23;20038;-92
2021/09/06 16:37:27;;;;;;;3.03;2.20;;;15.50;46.10;;;;;;6217661;23;19996;-94
2021/09/06 16:39:53;;;;;;;3.40;2.25;;;15.40;46.50;;;;;;6191633;23;20016;-93
2021/09/06 16:42:19;;;;;;;3.80;2.67;;;15.30;47.10;;;;;;6218131;23;20012;-94
2021/09/06 16:44:44;;;;;;;4.13;2.40;;;15.20;47.40;;;;;;6218834;23;20047;-92
2021/09/06 16:47:10;;;;;;;3.67;2.60;;;15.10;47.30;;;;;;6218609;23;20428;-94
2021/09/06 16:49:36;;;;;;;3.95;2.38;;;15.00;47.60;;;;;;6191578;23;20004;-92
2021/09/06 16:52:02;;;;;;;2.95;2.35;;;15.00;47.80;;;;;;6193027;23;20001;-93
2021/09/06 16:54:27;;;;;;;4.10;2.17;;;14.90;48.00;;;;;;6192621;23;20019;-94
2021/09/06 16:56:53;;;;;;;4.53;2.67;;;14.80;48.20;;;;;;6218741;23;20356;-93
2021/09/06 16:59:21;;;;;;;2.35;1.88;;;14.80;48.30;;;;;;6218767;23;19992;-94
2021/09/06 17:01:47;;;;;;;2.80;2.00;;;14.80;48.60;;;;;;6220448;23;20079;-94
2021/09/06 17:04:13;;;;;;;5.15;2.30;;;14.70;48.60;;;;;;6191290;23;19997;-93
2021/09/06 17:06:41;;;;;;;2.17;1.90;;;14.70;48.70;;;;;;6218698;23;20001;-94
2021/09/06 17:09:07;;;;;;;3.00;1.90;;;14.60;48.60;;;;;;6191917;23;20051;-93
2021/09/06 17:11:36;;;;;;;3.35;2.00;;;14.60;48.80;;;;;;6193070;23;20000;-93
2021/09/06 17:14:02;;;;;;;2.35;1.67;;;14.60;48.70;;;;;;6192513;23;20013;-93
2021/09/06 17:16:28;;;;;;;2.03;1.70;;;14.60;49.00;;;;;;6192491;23;20062;-93
2021/09/06 17:18:54;;;;;;;2.50;2.20;;;14.50;49.00;;;;;;6218885;23;20067;-93
2021/09/06 17:21:19;;;;;;;4.18;2.60;;;14.50;49.10;;;;;;6218548;23;19997;-93
2021/09/06 17:23:46;;;;;;;5.15;3.10;;;14.40;49.40;;;;;;6191726;23;20088;-94
2021/09/06 17:26:13;;;;;;;3.88;2.20;;;14.30;49.70;;;;;;6191750;23;20014;-93